UP1225 ULLI-UMKK
Flight info
| Callsign | UP1225 |
|---|---|
| Flight time | 1h 37m |
| Altitude | 38000 |
| Route | UTETA DCT PISIS DCT ARANS/N0460F380 DCT PIDIN DCT PISIM DCT PIRUX DCT PIVAX/N0466F390 DCT GARSO DCT AGONA DCT TURIP |
| Aircraft | B736/M-SDE2E3FGHIRWXY/LB1 |
Departure
| Time | 2026-05-08 19:07 |
|---|---|
| Airport | Pulkovo Airport (ULLI) |
Arrival
| Time | 2026-05-08 20:44 |
|---|---|
| Airport | Khrabrovo Airport (UMKK) |
| Time | Latitude | Longitude | Altitude | Speed | Heading |
|---|---|---|---|---|---|
| 2026-05-08 18:44 | 59.80232 | 30.26542 | 81 ft | 0 kts | 287° |
| 2026-05-08 18:58 | 59.80232 | 30.26540 | 75 ft | 1 kts | 287° |
| 2026-05-08 18:58 | 59.80240 | 30.26490 | 75 ft | 5 kts | 287° |
| 2026-05-08 18:59 | 59.80254 | 30.26428 | 78 ft | 5 kts | 316° |
| 2026-05-08 18:59 | 59.80289 | 30.26436 | 75 ft | 5 kts | 17° |
| 2026-05-08 18:59 | 59.80324 | 30.26449 | 75 ft | 5 kts | 4° |
| 2026-05-08 18:59 | 59.80360 | 30.26454 | 76 ft | 5 kts | 8° |
| 2026-05-08 19:00 | 59.80395 | 30.26471 | 74 ft | 5 kts | 15° |
| 2026-05-08 19:00 | 59.80429 | 30.26486 | 74 ft | 5 kts | 358° |
| 2026-05-08 19:00 | 59.80457 | 30.26439 | 74 ft | 7 kts | 298° |
| 2026-05-08 19:00 | 59.80475 | 30.26327 | 77 ft | 10 kts | 286° |
| 2026-05-08 19:01 | 59.80500 | 30.26159 | 73 ft | 15 kts | 287° |
| 2026-05-08 19:01 | 59.80535 | 30.25929 | 67 ft | 20 kts | 287° |
| 2026-05-08 19:01 | 59.80578 | 30.25644 | 62 ft | 23 kts | 286° |
| 2026-05-08 19:01 | 59.80624 | 30.25328 | 63 ft | 23 kts | 287° |
| 2026-05-08 19:02 | 59.80671 | 30.25026 | 61 ft | 23 kts | 287° |
| 2026-05-08 19:02 | 59.80713 | 30.24740 | 62 ft | 16 kts | 286° |
| 2026-05-08 19:02 | 59.80746 | 30.24632 | 63 ft | 0 kts | 332° |
| 2026-05-08 19:03 | 59.80748 | 30.24630 | 63 ft | 2 kts | 332° |
| 2026-05-08 19:03 | 59.80778 | 30.24610 | 56 ft | 6 kts | 345° |
| 2026-05-08 19:03 | 59.80821 | 30.24590 | 62 ft | 6 kts | 347° |
| 2026-05-08 19:03 | 59.80822 | 30.24590 | 54 ft | 0 kts | 347° |
| 2026-05-08 19:05 | 59.80861 | 30.24572 | 61 ft | 8 kts | 347° |
| 2026-05-08 19:05 | 59.80922 | 30.24558 | 55 ft | 9 kts | 6° |
| 2026-05-08 19:05 | 59.80962 | 30.24634 | 62 ft | 9 kts | 91° |
| 2026-05-08 19:06 | 59.80954 | 30.24684 | 60 ft | 0 kts | 108° |
| 2026-05-08 19:06 | 59.80954 | 30.24685 | 60 ft | 0 kts | 108° |
| 2026-05-08 19:06 | 59.80887 | 30.25130 | 66 ft | 74 kts | 105° |
| 2026-05-08 19:06 | 59.80675 | 30.26600 | 76 ft | 144 kts | 105° |
| 2026-05-08 19:07 | 59.80372 | 30.28824 | 376 ft | 179 kts | 104° |
| 2026-05-08 19:07 | 59.80019 | 30.31177 | 1409 ft | 172 kts | 103° |
| 2026-05-08 19:07 | 59.79673 | 30.33379 | 2524 ft | 169 kts | 100° |
| 2026-05-08 19:07 | 59.79313 | 30.35773 | 3060 ft | 200 kts | 101° |
| 2026-05-08 19:08 | 59.78890 | 30.38618 | 3530 ft | 224 kts | 101° |
| 2026-05-08 19:08 | 59.78440 | 30.41623 | 4371 ft | 229 kts | 102° |
| 2026-05-08 19:08 | 59.77981 | 30.44671 | 5267 ft | 232 kts | 102° |
| 2026-05-08 19:08 | 59.77513 | 30.47758 | 6122 ft | 236 kts | 102° |
| 2026-05-08 19:09 | 59.77038 | 30.50904 | 6927 ft | 240 kts | 102° |
| 2026-05-08 19:09 | 59.76914 | 30.54174 | 7658 ft | 238 kts | 73° |
| 2026-05-08 19:09 | 59.77680 | 30.57010 | 8566 ft | 234 kts | 42° |
| 2026-05-08 19:09 | 59.79010 | 30.58771 | 9676 ft | 229 kts | 20° |
| 2026-05-08 19:10 | 59.80522 | 30.59779 | 10703 ft | 231 kts | 15° |
| 2026-05-08 19:10 | 59.82082 | 30.60664 | 11588 ft | 235 kts | 11° |
| 2026-05-08 19:10 | 59.83706 | 30.60717 | 12485 ft | 236 kts | 346° |
| 2026-05-08 19:10 | 59.85198 | 30.59351 | 13428 ft | 241 kts | 324° |
| 2026-05-08 19:11 | 59.86328 | 30.56822 | 14163 ft | 256 kts | 302° |
| 2026-05-08 19:11 | 59.86974 | 30.53422 | 14982 ft | 263 kts | 291° |
| 2026-05-08 19:11 | 59.87484 | 30.49962 | 15870 ft | 265 kts | 289° |
| 2026-05-08 19:11 | 59.87715 | 30.46262 | 16576 ft | 280 kts | 270° |
| 2026-05-08 19:12 | 59.87380 | 30.42373 | 17424 ft | 286 kts | 264° |
| 2026-05-08 19:12 | 59.86991 | 30.38378 | 17850 ft | 306 kts | 264° |
| 2026-05-08 19:12 | 59.86582 | 30.34049 | 18040 ft | 330 kts | 264° |
| 2026-05-08 19:12 | 59.86144 | 30.29401 | 18232 ft | 353 kts | 264° |
| 2026-05-08 19:13 | 59.85680 | 30.24509 | 18706 ft | 365 kts | 263° |
| 2026-05-08 19:13 | 59.85205 | 30.19524 | 19399 ft | 367 kts | 263° |
| 2026-05-08 19:13 | 59.84728 | 30.14538 | 20185 ft | 367 kts | 263° |
| 2026-05-08 19:13 | 59.84250 | 30.09527 | 20940 ft | 369 kts | 263° |
| 2026-05-08 19:14 | 59.83768 | 30.04491 | 21631 ft | 372 kts | 263° |
| 2026-05-08 19:14 | 59.83280 | 29.99409 | 22333 ft | 375 kts | 263° |
| 2026-05-08 19:14 | 59.82787 | 29.94291 | 23026 ft | 378 kts | 263° |
| 2026-05-08 19:14 | 59.82288 | 29.89138 | 23696 ft | 381 kts | 263° |
| 2026-05-08 19:15 | 59.81784 | 29.83950 | 24300 ft | 384 kts | 263° |
| 2026-05-08 19:15 | 59.81274 | 29.78727 | 24867 ft | 386 kts | 262° |
| 2026-05-08 19:15 | 59.80759 | 29.73477 | 25437 ft | 388 kts | 262° |
| 2026-05-08 19:15 | 59.80239 | 29.68194 | 25993 ft | 391 kts | 262° |
| 2026-05-08 19:16 | 59.79713 | 29.62880 | 26568 ft | 393 kts | 262° |
| 2026-05-08 19:16 | 59.79185 | 29.57568 | 27199 ft | 392 kts | 261° |
| 2026-05-08 19:16 | 59.78655 | 29.52250 | 27322 ft | 393 kts | 261° |
| 2026-05-08 19:16 | 59.78129 | 29.47017 | 27368 ft | 389 kts | 260° |
| 2026-05-08 19:17 | 59.77596 | 29.41739 | 27381 ft | 391 kts | 260° |
| 2026-05-08 19:17 | 59.77062 | 29.36443 | 27387 ft | 391 kts | 260° |
| 2026-05-08 19:17 | 59.76527 | 29.31153 | 27398 ft | 392 kts | 260° |
| 2026-05-08 19:17 | 59.75985 | 29.25824 | 27733 ft | 395 kts | 260° |
| 2026-05-08 19:18 | 59.75442 | 29.20511 | 28524 ft | 391 kts | 260° |
| 2026-05-08 19:18 | 59.74900 | 29.15225 | 29207 ft | 390 kts | 259° |
| 2026-05-08 19:18 | 59.74354 | 29.09935 | 29711 ft | 393 kts | 259° |
| 2026-05-08 19:18 | 59.73863 | 29.04567 | 30128 ft | 397 kts | 265° |
| 2026-05-08 19:19 | 59.73958 | 28.99081 | 30544 ft | 401 kts | 278° |
| 2026-05-08 19:19 | 59.74666 | 28.93701 | 30942 ft | 405 kts | 285° |
| 2026-05-08 19:19 | 59.75538 | 28.88353 | 31287 ft | 409 kts | 286° |
| 2026-05-08 19:19 | 59.76436 | 28.83044 | 31608 ft | 412 kts | 286° |
| 2026-05-08 19:20 | 59.77352 | 28.77638 | 32020 ft | 413 kts | 286° |
| 2026-05-08 19:20 | 59.77658 | 28.75815 | 32179 ft | 412 kts | 286° |
| 2026-05-08 19:20 | 59.79147 | 28.66828 | 32831 ft | 414 kts | 286° |
| 2026-05-08 19:20 | 59.80034 | 28.61373 | 33181 ft | 415 kts | 286° |
| 2026-05-08 19:21 | 59.80913 | 28.55919 | 33642 ft | 414 kts | 285° |
| 2026-05-08 19:21 | 59.81785 | 28.50470 | 34105 ft | 413 kts | 285° |
| 2026-05-08 19:21 | 59.82652 | 28.45025 | 34474 ft | 413 kts | 285° |
| 2026-05-08 19:21 | 59.83519 | 28.39559 | 34773 ft | 414 kts | 285° |
| 2026-05-08 19:22 | 59.84380 | 28.34111 | 35114 ft | 413 kts | 285° |
| 2026-05-08 19:22 | 59.85228 | 28.28732 | 35456 ft | 412 kts | 285° |
| 2026-05-08 19:22 | 59.86084 | 28.23285 | 35771 ft | 412 kts | 285° |
| 2026-05-08 19:22 | 59.86940 | 28.17824 | 36065 ft | 412 kts | 285° |
| 2026-05-08 19:23 | 59.87791 | 28.12373 | 36375 ft | 412 kts | 285° |
| 2026-05-08 19:23 | 59.88641 | 28.06917 | 36640 ft | 413 kts | 285° |
| 2026-05-08 19:23 | 59.89494 | 28.01417 | 36845 ft | 415 kts | 285° |
| 2026-05-08 19:23 | 59.90343 | 27.95931 | 37155 ft | 414 kts | 285° |
| 2026-05-08 19:24 | 59.91188 | 27.90456 | 37490 ft | 413 kts | 285° |
| 2026-05-08 19:24 | 59.92029 | 27.84986 | 37751 ft | 413 kts | 285° |
| 2026-05-08 19:24 | 59.92869 | 27.79504 | 37969 ft | 414 kts | 285° |
| 2026-05-08 19:24 | 59.93709 | 27.74003 | 38208 ft | 414 kts | 285° |
| 2026-05-08 19:25 | 59.94535 | 27.68582 | 38419 ft | 416 kts | 285° |
| 2026-05-08 19:25 | 59.96220 | 27.57456 | 38397 ft | 419 kts | 285° |
| 2026-05-08 19:26 | 59.97888 | 27.46384 | 38401 ft | 413 kts | 285° |
| 2026-05-08 19:26 | 59.99533 | 27.35389 | 38408 ft | 413 kts | 285° |
| 2026-05-08 19:27 | 60.01169 | 27.24371 | 38408 ft | 414 kts | 285° |
| 2026-05-08 19:27 | 60.02804 | 27.13309 | 38406 ft | 415 kts | 285° |
| 2026-05-08 19:28 | 60.04224 | 27.02150 | 38396 ft | 413 kts | 275° |
| 2026-05-08 19:28 | 60.04204 | 26.90691 | 38400 ft | 413 kts | 261° |
| 2026-05-08 19:29 | 60.02992 | 26.79320 | 38405 ft | 423 kts | 257° |
| 2026-05-08 19:29 | 60.01673 | 26.67819 | 38407 ft | 430 kts | 257° |
| 2026-05-08 19:30 | 60.00351 | 26.56120 | 38396 ft | 431 kts | 258° |
| 2026-05-08 19:30 | 59.99038 | 26.44424 | 38399 ft | 431 kts | 258° |
| 2026-05-08 19:31 | 59.97719 | 26.32737 | 38400 ft | 431 kts | 257° |
| 2026-05-08 19:31 | 59.96390 | 26.21063 | 38402 ft | 431 kts | 257° |
| 2026-05-08 19:32 | 59.95052 | 26.09400 | 38401 ft | 430 kts | 257° |
| 2026-05-08 19:32 | 59.93712 | 25.97839 | 38381 ft | 430 kts | 257° |
| 2026-05-08 19:33 | 59.92355 | 25.86216 | 38395 ft | 431 kts | 257° |
| 2026-05-08 19:33 | 59.90989 | 25.74589 | 38394 ft | 431 kts | 257° |
| 2026-05-08 19:34 | 59.89609 | 25.62940 | 38386 ft | 431 kts | 257° |
| 2026-05-08 19:34 | 59.88221 | 25.51313 | 38385 ft | 431 kts | 257° |
| 2026-05-08 19:35 | 59.86819 | 25.39668 | 38387 ft | 432 kts | 256° |
| 2026-05-08 19:35 | 59.85411 | 25.28063 | 38383 ft | 432 kts | 256° |
| 2026-05-08 19:36 | 59.84000 | 25.16528 | 38380 ft | 432 kts | 256° |
| 2026-05-08 19:36 | 59.82570 | 25.04930 | 38367 ft | 432 kts | 256° |
| 2026-05-08 19:37 | 59.81361 | 24.95204 | 38383 ft | 433 kts | 256° |
| 2026-05-08 19:37 | 59.79671 | 24.81701 | 38376 ft | 434 kts | 256° |
| 2026-05-08 19:38 | 59.78451 | 24.72037 | 38372 ft | 434 kts | 256° |
| 2026-05-08 19:38 | 59.76974 | 24.60406 | 38377 ft | 434 kts | 256° |
| 2026-05-08 19:39 | 59.75486 | 24.48776 | 38390 ft | 435 kts | 255° |
| 2026-05-08 19:39 | 59.73903 | 24.37190 | 38364 ft | 435 kts | 253° |
| 2026-05-08 19:40 | 59.72132 | 24.25711 | 38382 ft | 435 kts | 252° |
| 2026-05-08 19:40 | 59.70359 | 24.14327 | 38373 ft | 436 kts | 253° |
| 2026-05-08 19:41 | 59.68587 | 24.02849 | 38362 ft | 436 kts | 252° |
| 2026-05-08 19:41 | 59.66811 | 23.91351 | 38376 ft | 437 kts | 252° |
| 2026-05-08 19:42 | 59.65022 | 23.79832 | 38375 ft | 437 kts | 252° |
| 2026-05-08 19:42 | 59.63224 | 23.68338 | 38375 ft | 438 kts | 252° |
| 2026-05-08 19:43 | 59.61416 | 23.56856 | 38383 ft | 438 kts | 252° |
| 2026-05-08 19:43 | 59.59595 | 23.45372 | 38383 ft | 438 kts | 252° |
| 2026-05-08 19:44 | 59.57765 | 23.33898 | 38377 ft | 438 kts | 252° |
| 2026-05-08 19:44 | 59.55932 | 23.22476 | 38383 ft | 439 kts | 252° |
| 2026-05-08 19:45 | 59.53820 | 23.11206 | 38384 ft | 438 kts | 245° |
| 2026-05-08 19:45 | 59.51184 | 23.00371 | 38379 ft | 438 kts | 244° |
| 2026-05-08 19:46 | 59.48510 | 22.89593 | 38386 ft | 438 kts | 244° |
| 2026-05-08 19:46 | 59.44556 | 22.73440 | 38380 ft | 438 kts | 244° |
| 2026-05-08 19:47 | 59.41917 | 22.62634 | 38380 ft | 438 kts | 244° |
| 2026-05-08 19:47 | 59.39272 | 22.51844 | 38398 ft | 438 kts | 244° |
| 2026-05-08 19:48 | 59.36617 | 22.41072 | 38381 ft | 439 kts | 243° |
| 2026-05-08 19:48 | 59.33963 | 22.30363 | 38384 ft | 440 kts | 243° |
| 2026-05-08 19:49 | 59.31277 | 22.19574 | 38384 ft | 440 kts | 243° |
| 2026-05-08 19:49 | 59.28583 | 22.08808 | 38382 ft | 441 kts | 243° |
| 2026-05-08 19:50 | 59.25879 | 21.98051 | 38380 ft | 441 kts | 243° |
| 2026-05-08 19:50 | 59.23165 | 21.87308 | 38377 ft | 441 kts | 243° |
| 2026-05-08 19:51 | 59.20434 | 21.76555 | 38368 ft | 441 kts | 243° |
| 2026-05-08 19:51 | 59.17718 | 21.65905 | 38382 ft | 441 kts | 243° |
| 2026-05-08 19:52 | 59.14968 | 21.55176 | 38386 ft | 443 kts | 243° |
| 2026-05-08 19:52 | 59.12203 | 21.44440 | 38376 ft | 441 kts | 242° |
| 2026-05-08 19:53 | 59.09493 | 21.33955 | 38367 ft | 428 kts | 242° |
| 2026-05-08 19:53 | 59.06793 | 21.23668 | 38377 ft | 425 kts | 238° |
| 2026-05-08 19:54 | 59.04977 | 21.19183 | 38375 ft | 423 kts | 223° |
| 2026-05-08 19:54 | 59.02694 | 21.15703 | 38369 ft | 423 kts | 212° |
| 2026-05-08 19:54 | 59.00055 | 21.13275 | 38353 ft | 414 kts | 199° |
| 2026-05-08 19:54 | 58.97366 | 21.11557 | 38358 ft | 399 kts | 199° |
| 2026-05-08 19:55 | 58.94774 | 21.09949 | 38359 ft | 384 kts | 199° |
| 2026-05-08 19:55 | 58.92275 | 21.08404 | 38347 ft | 370 kts | 199° |
| 2026-05-08 19:55 | 58.87472 | 21.05398 | 38377 ft | 362 kts | 199° |
| 2026-05-08 19:56 | 58.82629 | 21.02325 | 38386 ft | 371 kts | 199° |
| 2026-05-08 19:56 | 58.77726 | 20.99203 | 38375 ft | 374 kts | 199° |
| 2026-05-08 19:57 | 58.72773 | 20.96053 | 38369 ft | 375 kts | 199° |
| 2026-05-08 19:57 | 58.67805 | 20.92902 | 38365 ft | 375 kts | 199° |
| 2026-05-08 19:58 | 58.62870 | 20.89781 | 38362 ft | 375 kts | 199° |
| 2026-05-08 19:58 | 58.57919 | 20.86659 | 38358 ft | 373 kts | 199° |
| 2026-05-08 19:59 | 58.52993 | 20.83562 | 38357 ft | 371 kts | 199° |
| 2026-05-08 19:59 | 58.48027 | 20.80448 | 38376 ft | 383 kts | 199° |
| 2026-05-08 20:00 | 58.42862 | 20.77218 | 38373 ft | 398 kts | 199° |
| 2026-05-08 20:00 | 58.37503 | 20.73879 | 38372 ft | 412 kts | 199° |
| 2026-05-08 20:01 | 58.31967 | 20.70441 | 38365 ft | 425 kts | 199° |
| 2026-05-08 20:01 | 58.26266 | 20.66913 | 38356 ft | 435 kts | 199° |
| 2026-05-08 20:02 | 58.20512 | 20.63365 | 38334 ft | 434 kts | 198° |
| 2026-05-08 20:02 | 58.14801 | 20.59855 | 38343 ft | 434 kts | 198° |
| 2026-05-08 20:03 | 58.09053 | 20.56334 | 38336 ft | 434 kts | 198° |
| 2026-05-08 20:03 | 58.03316 | 20.52831 | 38334 ft | 433 kts | 198° |
| 2026-05-08 20:04 | 57.97576 | 20.49338 | 38333 ft | 433 kts | 198° |
| 2026-05-08 20:04 | 57.91838 | 20.45858 | 38329 ft | 432 kts | 198° |
| 2026-05-08 20:05 | 57.86114 | 20.42398 | 38331 ft | 432 kts | 198° |
| 2026-05-08 20:05 | 57.80420 | 20.38968 | 38329 ft | 432 kts | 198° |
| 2026-05-08 20:06 | 57.74691 | 20.35528 | 38330 ft | 432 kts | 198° |
| 2026-05-08 20:06 | 57.68954 | 20.32095 | 38320 ft | 432 kts | 198° |
| 2026-05-08 20:07 | 57.63222 | 20.28676 | 38325 ft | 432 kts | 198° |
| 2026-05-08 20:07 | 57.57482 | 20.25264 | 38317 ft | 432 kts | 198° |
| 2026-05-08 20:08 | 57.51745 | 20.21865 | 38299 ft | 433 kts | 198° |
| 2026-05-08 20:08 | 57.46042 | 20.18497 | 38312 ft | 433 kts | 198° |
| 2026-05-08 20:09 | 57.40300 | 20.15117 | 38306 ft | 433 kts | 198° |
| 2026-05-08 20:09 | 57.34547 | 20.11741 | 38310 ft | 433 kts | 198° |
| 2026-05-08 20:10 | 57.28787 | 20.08373 | 38308 ft | 434 kts | 198° |
| 2026-05-08 20:10 | 57.23019 | 20.05011 | 38311 ft | 434 kts | 198° |
| 2026-05-08 20:11 | 57.17253 | 20.01661 | 38301 ft | 435 kts | 198° |
| 2026-05-08 20:11 | 57.11512 | 19.98335 | 38312 ft | 435 kts | 198° |
| 2026-05-08 20:12 | 57.05739 | 19.95002 | 38301 ft | 435 kts | 198° |
| 2026-05-08 20:12 | 56.99868 | 19.92401 | 38304 ft | 435 kts | 186° |
| 2026-05-08 20:13 | 56.93830 | 19.92720 | 38301 ft | 436 kts | 175° |
| 2026-05-08 20:13 | 56.87802 | 19.94002 | 38283 ft | 436 kts | 174° |
| 2026-05-08 20:14 | 56.81777 | 19.95263 | 38274 ft | 436 kts | 175° |
| 2026-05-08 20:14 | 56.75743 | 19.96466 | 38278 ft | 436 kts | 175° |
| 2026-05-08 20:15 | 56.69707 | 19.97643 | 38288 ft | 436 kts | 175° |
| 2026-05-08 20:15 | 56.63717 | 19.98803 | 38264 ft | 436 kts | 175° |
| 2026-05-08 20:16 | 56.57682 | 19.99969 | 38279 ft | 436 kts | 175° |
| 2026-05-08 20:16 | 56.51648 | 20.01133 | 38263 ft | 436 kts | 175° |
| 2026-05-08 20:17 | 56.45623 | 20.02291 | 38248 ft | 435 kts | 175° |
| 2026-05-08 20:17 | 56.39595 | 20.03447 | 38259 ft | 436 kts | 175° |
| 2026-05-08 20:18 | 56.33559 | 20.04600 | 38261 ft | 436 kts | 175° |
| 2026-05-08 20:18 | 56.27518 | 20.05750 | 38255 ft | 436 kts | 175° |
| 2026-05-08 20:19 | 56.21459 | 20.06901 | 37811 ft | 443 kts | 175° |
| 2026-05-08 20:19 | 56.18394 | 20.07481 | 37228 ft | 441 kts | 174° |
| 2026-05-08 20:19 | 56.15355 | 20.08130 | 36558 ft | 438 kts | 171° |
| 2026-05-08 20:20 | 56.12418 | 20.09441 | 36167 ft | 430 kts | 161° |
| 2026-05-08 20:20 | 56.09601 | 20.11240 | 35354 ft | 431 kts | 160° |
| 2026-05-08 20:20 | 56.06815 | 20.13071 | 34648 ft | 430 kts | 160° |
| 2026-05-08 20:20 | 56.04007 | 20.14920 | 33775 ft | 430 kts | 160° |
| 2026-05-08 20:21 | 56.01218 | 20.16743 | 33183 ft | 423 kts | 160° |
| 2026-05-08 20:21 | 55.98466 | 20.18525 | 32604 ft | 416 kts | 159° |
| 2026-05-08 20:21 | 55.95765 | 20.20261 | 32038 ft | 410 kts | 159° |
| 2026-05-08 20:21 | 55.93094 | 20.21967 | 31502 ft | 404 kts | 159° |
| 2026-05-08 20:22 | 55.90469 | 20.23637 | 30966 ft | 398 kts | 159° |
| 2026-05-08 20:22 | 55.88743 | 20.24734 | 30617 ft | 394 kts | 159° |
| 2026-05-08 20:22 | 55.85344 | 20.26890 | 29876 ft | 387 kts | 159° |
| 2026-05-08 20:22 | 55.83641 | 20.27969 | 29508 ft | 383 kts | 159° |
| 2026-05-08 20:23 | 55.80352 | 20.30050 | 28817 ft | 375 kts | 159° |
| 2026-05-08 20:23 | 55.77907 | 20.31595 | 28302 ft | 370 kts | 159° |
| 2026-05-08 20:23 | 55.76301 | 20.32609 | 27959 ft | 367 kts | 159° |
| 2026-05-08 20:23 | 55.73907 | 20.34119 | 27457 ft | 363 kts | 159° |
| 2026-05-08 20:24 | 55.71531 | 20.35616 | 26947 ft | 360 kts | 159° |
| 2026-05-08 20:24 | 55.69175 | 20.37099 | 26442 ft | 358 kts | 159° |
| 2026-05-08 20:24 | 55.66836 | 20.38568 | 25956 ft | 356 kts | 159° |
| 2026-05-08 20:24 | 55.64495 | 20.40038 | 25465 ft | 357 kts | 159° |
| 2026-05-08 20:25 | 55.62144 | 20.41512 | 24978 ft | 360 kts | 159° |
| 2026-05-08 20:25 | 55.59752 | 20.43011 | 24488 ft | 371 kts | 159° |
| 2026-05-08 20:25 | 55.57290 | 20.44551 | 23946 ft | 379 kts | 159° |
| 2026-05-08 20:25 | 55.54803 | 20.46103 | 23346 ft | 378 kts | 159° |
| 2026-05-08 20:26 | 55.52334 | 20.47639 | 22793 ft | 374 kts | 159° |
| 2026-05-08 20:26 | 55.49897 | 20.49155 | 22292 ft | 369 kts | 159° |
| 2026-05-08 20:26 | 55.47492 | 20.50651 | 21790 ft | 365 kts | 159° |
| 2026-05-08 20:26 | 55.45108 | 20.52132 | 21286 ft | 361 kts | 159° |
| 2026-05-08 20:27 | 55.42747 | 20.53596 | 20797 ft | 358 kts | 159° |
| 2026-05-08 20:27 | 55.40382 | 20.54942 | 20305 ft | 356 kts | 164° |
| 2026-05-08 20:27 | 55.37962 | 20.55588 | 19760 ft | 358 kts | 175° |
| 2026-05-08 20:27 | 55.35471 | 20.55756 | 19266 ft | 357 kts | 176° |
| 2026-05-08 20:28 | 55.33006 | 20.56111 | 18759 ft | 354 kts | 164° |
| 2026-05-08 20:28 | 55.30819 | 20.57937 | 18237 ft | 348 kts | 142° |
| 2026-05-08 20:28 | 55.29135 | 20.60952 | 17665 ft | 345 kts | 125° |
| 2026-05-08 20:28 | 55.27754 | 20.64368 | 17191 ft | 342 kts | 123° |
| 2026-05-08 20:29 | 55.26422 | 20.67802 | 16706 ft | 339 kts | 122° |
| 2026-05-08 20:29 | 55.25106 | 20.71197 | 16257 ft | 335 kts | 123° |
| 2026-05-08 20:29 | 55.23799 | 20.74532 | 15992 ft | 326 kts | 123° |
| 2026-05-08 20:29 | 55.22531 | 20.77740 | 15836 ft | 314 kts | 123° |
| 2026-05-08 20:30 | 55.21303 | 20.80825 | 15713 ft | 303 kts | 124° |
| 2026-05-08 20:30 | 55.20112 | 20.83805 | 15561 ft | 293 kts | 124° |
| 2026-05-08 20:30 | 55.18960 | 20.86680 | 15444 ft | 284 kts | 124° |
| 2026-05-08 20:30 | 55.17842 | 20.89463 | 15325 ft | 274 kts | 124° |
| 2026-05-08 20:31 | 55.16764 | 20.92152 | 15211 ft | 265 kts | 123° |
| 2026-05-08 20:31 | 55.15956 | 20.95014 | 14989 ft | 260 kts | 109° |
| 2026-05-08 20:31 | 55.15338 | 20.97971 | 14723 ft | 259 kts | 110° |
| 2026-05-08 20:31 | 55.14713 | 21.00866 | 14446 ft | 257 kts | 110° |
| 2026-05-08 20:32 | 55.14069 | 21.03775 | 14173 ft | 256 kts | 111° |
| 2026-05-08 20:32 | 55.13420 | 21.06673 | 13865 ft | 255 kts | 111° |
| 2026-05-08 20:32 | 55.12660 | 21.09454 | 13539 ft | 255 kts | 127° |
| 2026-05-08 20:32 | 55.11362 | 21.11551 | 13271 ft | 254 kts | 140° |
| 2026-05-08 20:33 | 55.09975 | 21.13441 | 12972 ft | 253 kts | 140° |
| 2026-05-08 20:33 | 55.08593 | 21.15332 | 12686 ft | 251 kts | 139° |
| 2026-05-08 20:33 | 55.07223 | 21.17215 | 12402 ft | 250 kts | 139° |
| 2026-05-08 20:33 | 55.05861 | 21.19093 | 12121 ft | 249 kts | 139° |
| 2026-05-08 20:34 | 55.04423 | 21.20758 | 11819 ft | 252 kts | 157° |
| 2026-05-08 20:34 | 55.02693 | 21.21341 | 11556 ft | 254 kts | 169° |
| 2026-05-08 20:34 | 54.99221 | 21.22186 | 10994 ft | 252 kts | 168° |
| 2026-05-08 20:35 | 54.97486 | 21.22625 | 10715 ft | 251 kts | 167° |
| 2026-05-08 20:35 | 54.95760 | 21.23065 | 10451 ft | 250 kts | 168° |
| 2026-05-08 20:35 | 54.94020 | 21.23164 | 10154 ft | 254 kts | 190° |
| 2026-05-08 20:35 | 54.92355 | 21.22109 | 9902 ft | 254 kts | 199° |
| 2026-05-08 20:36 | 54.90716 | 21.20959 | 9592 ft | 254 kts | 198° |
| 2026-05-08 20:36 | 54.89080 | 21.19825 | 9301 ft | 253 kts | 198° |
| 2026-05-08 20:36 | 54.87446 | 21.18701 | 9010 ft | 252 kts | 198° |
| 2026-05-08 20:36 | 54.85815 | 21.17582 | 8731 ft | 252 kts | 198° |
| 2026-05-08 20:37 | 54.84304 | 21.16061 | 8426 ft | 256 kts | 224° |
| 2026-05-08 20:37 | 54.83188 | 21.13671 | 8191 ft | 254 kts | 231° |
| 2026-05-08 20:37 | 54.82097 | 21.11252 | 7912 ft | 254 kts | 231° |
| 2026-05-08 20:37 | 54.81003 | 21.08848 | 7649 ft | 254 kts | 231° |
| 2026-05-08 20:38 | 54.80224 | 21.06147 | 7358 ft | 252 kts | 263° |
| 2026-05-08 20:38 | 54.80355 | 21.03213 | 7092 ft | 242 kts | 295° |
| 2026-05-08 20:38 | 54.81244 | 21.00829 | 6787 ft | 239 kts | 321° |
| 2026-05-08 20:38 | 54.82609 | 20.99242 | 6462 ft | 236 kts | 339° |
| 2026-05-08 20:39 | 54.84115 | 20.98083 | 6104 ft | 237 kts | 342° |
| 2026-05-08 20:39 | 54.85643 | 20.96975 | 5751 ft | 239 kts | 342° |
| 2026-05-08 20:39 | 54.87184 | 20.95849 | 5405 ft | 241 kts | 342° |
| 2026-05-08 20:39 | 54.88732 | 20.94699 | 5060 ft | 243 kts | 341° |
| 2026-05-08 20:40 | 54.90292 | 20.93528 | 4702 ft | 245 kts | 341° |
| 2026-05-08 20:40 | 54.91864 | 20.92342 | 4244 ft | 250 kts | 341° |
| 2026-05-08 20:40 | 54.93463 | 20.91130 | 3955 ft | 246 kts | 340° |
| 2026-05-08 20:40 | 54.94811 | 20.89438 | 3809 ft | 239 kts | 310° |
| 2026-05-08 20:41 | 54.95408 | 20.86710 | 3125 ft | 254 kts | 273° |
| 2026-05-08 20:41 | 54.95162 | 20.83657 | 2687 ft | 253 kts | 255° |
| 2026-05-08 20:41 | 54.94610 | 20.80809 | 2364 ft | 244 kts | 248° |
| 2026-05-08 20:41 | 54.93922 | 20.78166 | 2023 ft | 234 kts | 245° |
| 2026-05-08 20:42 | 54.93261 | 20.75671 | 1725 ft | 220 kts | 246° |
| 2026-05-08 20:42 | 54.92651 | 20.73317 | 1440 ft | 207 kts | 246° |
| 2026-05-08 20:42 | 54.92088 | 20.71147 | 1186 ft | 192 kts | 246° |
| 2026-05-08 20:42 | 54.91556 | 20.69095 | 934 ft | 179 kts | 246° |
| 2026-05-08 20:43 | 54.91068 | 20.67213 | 711 ft | 162 kts | 246° |
| 2026-05-08 20:43 | 54.90626 | 20.65508 | 514 ft | 148 kts | 246° |
| 2026-05-08 20:43 | 54.90228 | 20.63970 | 330 ft | 133 kts | 246° |
| 2026-05-08 20:43 | 54.89868 | 20.62574 | 137 ft | 125 kts | 247° |
| 2026-05-08 20:44 | 54.89539 | 20.61269 | 20 ft | 96 kts | 244° |
| 2026-05-08 20:44 | 54.89344 | 20.60530 | 22 ft | 52 kts | 246° |
| 2026-05-08 20:44 | 54.89201 | 20.59993 | 19 ft | 46 kts | 245° |
| 2026-05-08 20:44 | 54.89077 | 20.59518 | 24 ft | 40 kts | 245° |
| 2026-05-08 20:45 | 54.88964 | 20.59193 | 24 ft | 28 kts | 226° |
| 2026-05-08 20:45 | 54.88875 | 20.59086 | 26 ft | 16 kts | 204° |
| 2026-05-08 20:45 | 54.88818 | 20.59039 | 25 ft | 0 kts | 208° |
| 2026-05-08 20:46 | 54.88814 | 20.59036 | 25 ft | 2 kts | 208° |
| 2026-05-08 20:46 | 54.88791 | 20.59014 | 27 ft | 5 kts | 208° |
| 2026-05-08 20:46 | 54.88751 | 20.58977 | 25 ft | 9 kts | 208° |
| 2026-05-08 20:47 | 54.88703 | 20.58884 | 27 ft | 11 kts | 248° |
| 2026-05-08 20:47 | 54.88673 | 20.58763 | 26 ft | 11 kts | 230° |
| 2026-05-08 20:47 | 54.88603 | 20.58781 | 25 ft | 11 kts | 156° |
| 2026-05-08 20:47 | 54.88534 | 20.58816 | 25 ft | 11 kts | 196° |
| 2026-05-08 20:48 | 54.88509 | 20.58789 | 27 ft | 3 kts | 209° |
| 2026-05-08 20:48 | 54.88505 | 20.58785 | 27 ft | 0 kts | 206° |
| 2026-05-08 20:48 | 54.88504 | 20.58783 | 26 ft | 0 kts | 217° |
| 2026-05-08 20:48 | 54.88505 | 20.58776 | 26 ft | 2 kts | 259° |
| 2026-05-08 20:49 | 54.88494 | 20.58738 | 26 ft | 5 kts | 221° |
| 2026-05-08 20:49 | 54.88447 | 20.58720 | 26 ft | 8 kts | 187° |
| 2026-05-08 20:49 | 54.88420 | 20.58712 | 30 ft | 0 kts | 190° |
| 2026-05-08 20:49 | 54.88419 | 20.58712 | 30 ft | 1 kts | 190° |
| 2026-05-08 20:50 | 54.88417 | 20.58711 | 30 ft | 0 kts | 190° |